Time;durP1;ratioP1;P1;durP2;ratioP2;P2;SDS_P1;SDS_P2;PMS_P1;PMS_P2;Temp;Humidity;BMP_temperature;BMP_pressure;BME280_temperature;BME280_humidity;BME280_pressure;Samples;Min_cycle;Max_cycle;Signal;HPM_P1;HPM_P2
2024/04/17 00:01:25;;;;;;;0.20;0.20;;;;;;;;;;5540698;25;20000;-66
2024/04/17 00:03:51;;;;;;;0.20;0.17;;;;;;;;;;5535581;25;20001;-66
2024/04/17 00:06:17;;;;;;;0.05;0.03;;;5.30;99.90;;;;;;5504861;26;20053;-66
2024/04/17 00:08:43;;;;;;;0.08;0.08;;;5.20;99.90;;;;;;5535277;25;19993;-66
2024/04/17 00:11:08;;;;;;;0.20;0.20;;;5.30;99.90;;;;;;5544394;25;19992;-66
2024/04/17 00:13:34;;;;;;;0.00;0.00;;;5.40;99.90;;;;;;5537543;25;19992;-66
2024/04/17 00:16:01;;;;;;;0.00;0.00;;;5.30;99.90;;;;;;5545541;25;19989;-66
2024/04/17 00:18:27;;;;;;;0.00;0.00;;;5.30;99.90;;;;;;5539922;25;20195;-67
2024/04/17 00:20:53;;;;;;;0.20;0.20;;;5.10;99.90;;;;;;5536579;25;20009;-68
2024/04/17 00:23:20;;;;;;;0.13;0.13;;;5.30;99.90;;;;;;5537797;25;20163;-68
2024/04/17 00:25:46;;;;;;;0.00;0.00;;;;;;;;;;5488812;26;19985;-68
2024/04/17 00:28:11;;;;;;;0.00;0.00;;;5.20;99.90;;;;;;5535280;25;19985;-68
2024/04/17 00:30:37;;;;;;;0.00;0.00;;;5.40;99.90;;;;;;5534938;25;20094;-66
2024/04/17 00:33:03;;;;;;;0.03;0.03;;;5.20;99.90;;;;;;5477824;26;19990;-67
2024/04/17 00:35:29;;;;;;;0.20;0.20;;;5.20;99.90;;;;;;5531128;25;19986;-65
2024/04/17 00:37:55;;;;;;;0.00;0.00;;;5.10;99.90;;;;;;5535229;25;19989;-64
2024/04/17 00:40:21;;;;;;;0.05;0.05;;;5.20;99.90;;;;;;5504520;25;19989;-65
2024/04/17 00:42:47;;;;;;;0.10;0.10;;;5.00;99.90;;;;;;5535103;25;19981;-65
2024/04/17 00:45:13;;;;;;;0.00;0.00;;;4.90;99.90;;;;;;5535050;25;19985;-65
2024/04/17 00:47:39;;;;;;;0.80;0.28;;;;;;;;;;5535078;25;20182;-65
2024/04/17 00:50:07;;;;;;;0.10;0.10;;;5.00;99.90;;;;;;5534810;25;19997;-65
2024/04/17 00:52:33;;;;;;;0.00;0.00;;;4.90;99.90;;;;;;5534680;25;19997;-65
2024/04/17 00:55:00;;;;;;;0.00;0.00;;;5.10;99.90;;;;;;5534745;25;19986;-65
2024/04/17 00:57:27;;;;;;;0.17;0.17;;;5.00;99.90;;;;;;5535755;25;19998;-66
2024/04/17 00:59:54;;;;;;;0.00;0.00;;;5.10;99.90;;;;;;5544323;25;19990;-66
2024/04/17 01:02:19;;;;;;;0.47;0.47;;;5.10;99.90;;;;;;5534674;25;20000;-66
2024/04/17 01:04:45;;;;;;;0.15;0.15;;;5.10;99.90;;;;;;5534795;25;19986;-65
2024/04/17 01:07:11;;;;;;;0.30;0.25;;;5.00;99.90;;;;;;5534840;25;19985;-66
2024/04/17 01:09:37;;;;;;;0.00;0.00;;;;;;;;;;5487776;25;20089;-67
2024/04/17 01:12:05;;;;;;;0.70;0.43;;;4.90;99.90;;;;;;5557167;25;20156;-66
2024/04/17 01:14:31;;;;;;;0.22;0.22;;;;;;;;;;5537033;25;20163;-67
2024/04/17 01:16:57;;;;;;;0.10;0.10;;;;;;;;;;5534509;25;19990;-68
2024/04/17 01:19:23;;;;;;;0.10;0.10;;;4.70;99.90;;;;;;5534321;25;19993;-68
2024/04/17 01:21:49;;;;;;;0.10;0.10;;;4.70;99.90;;;;;;5534512;25;19998;-67
2024/04/17 01:24:15;;;;;;;0.00;0.00;;;4.70;99.90;;;;;;5534414;25;20097;-66
2024/04/17 01:26:40;;;;;;;0.10;0.10;;;4.70;99.90;;;;;;5534127;25;20066;-66
2024/04/17 01:29:06;;;;;;;0.20;0.20;;;4.70;99.90;;;;;;5542976;25;20021;-66
2024/04/17 01:31:32;;;;;;;0.10;0.10;;;;;;;;;;5538681;25;20213;-66
2024/04/17 01:33:58;;;;;;;0.00;0.00;;;4.70;99.90;;;;;;5534214;25;20202;-67
2024/04/17 01:36:23;;;;;;;0.20;0.10;;;4.80;99.90;;;;;;5533801;25;20013;-67
2024/04/17 01:38:49;;;;;;;0.10;0.10;;;5.20;99.90;;;;;;5502556;26;20218;-67
2024/04/17 01:41:15;;;;;;;0.10;0.10;;;4.90;99.90;;;;;;5523462;25;20048;-67
2024/04/17 01:43:41;;;;;;;0.08;0.08;;;4.80;99.90;;;;;;5532863;25;20066;-67
2024/04/17 01:46:06;;;;;;;0.00;0.00;;;4.80;99.90;;;;;;5533886;25;19989;-67
2024/04/17 01:48:32;;;;;;;0.05;0.05;;;4.80;99.90;;;;;;5534839;25;20004;-67
2024/04/17 01:50:57;;;;;;;0.10;0.10;;;3.30;99.90;;;;;;5533967;25;19990;-67
2024/04/17 01:53:23;;;;;;;0.00;0.00;;;4.90;99.90;;;;;;5533770;25;19993;-67
2024/04/17 01:55:49;;;;;;;0.10;0.10;;;4.90;99.90;;;;;;5533963;25;20245;-67
2024/04/17 01:58:15;;;;;;;0.10;0.10;;;;;;;;;;5538712;25;20117;-67
2024/04/17 02:00:40;;;;;;;0.10;0.10;;;4.90;99.90;;;;;;5541785;25;20087;-67
2024/04/17 02:03:06;;;;;;;0.28;0.28;;;5.00;99.90;;;;;;5550664;25;19985;-67
2024/04/17 02:05:32;;;;;;;0.03;0.03;;;5.00;99.90;;;;;;5534780;25;19985;-67
2024/04/17 02:07:58;;;;;;;0.15;0.15;;;5.10;99.90;;;;;;5533985;25;19986;-67
2024/04/17 02:10:23;;;;;;;0.00;0.00;;;4.90;99.90;;;;;;5553081;25;20000;-67
2024/04/17 02:12:49;;;;;;;0.10;0.10;;;4.70;99.90;;;;;;5533653;25;20206;-67
2024/04/17 02:15:15;;;;;;;0.00;0.00;;;5.00;99.90;;;;;;5473359;26;19982;-67
2024/04/17 02:17:40;;;;;;;0.00;0.00;;;5.00;99.90;;;;;;5534635;25;20012;-68
2024/04/17 02:20:07;;;;;;;0.00;0.00;;;5.00;99.90;;;;;;5546079;25;20049;-68
2024/04/17 02:22:33;;;;;;;0.00;0.00;;;5.10;99.90;;;;;;5534448;25;20221;-68
2024/04/17 02:24:59;;;;;;;0.00;0.00;;;5.00;99.90;;;;;;5533279;25;19997;-67
2024/04/17 02:27:25;;;;;;;0.00;0.00;;;5.10;99.90;;;;;;5501400;25;19993;-67
2024/04/17 02:29:54;;;;;;;0.08;0.08;;;5.30;99.90;;;;;;5533320;25;20000;-65
2024/04/17 02:32:19;;;;;;;0.10;0.10;;;5.00;99.90;;;;;;5547896;25;19998;-65
2024/04/17 02:34:45;;;;;;;0.05;0.05;;;5.10;99.90;;;;;;5534597;25;20050;-64
2024/04/17 02:37:11;;;;;;;0.10;0.10;;;5.40;99.90;;;;;;5564579;25;20000;-65
2024/04/17 02:39:38;;;;;;;0.00;0.00;;;5.10;99.90;;;;;;5497610;25;19982;-65
2024/04/17 02:42:04;;;;;;;0.00;0.00;;;4.90;99.90;;;;;;5475267;26;19998;-65
2024/04/17 02:44:30;;;;;;;0.00;0.00;;;5.10;99.90;;;;;;5544136;25;19985;-66
2024/04/17 02:46:56;;;;;;;0.00;0.00;;;5.10;99.90;;;;;;5532958;25;20093;-66
2024/04/17 02:49:23;;;;;;;0.00;0.00;;;5.00;99.90;;;;;;5549425;25;19991;-66
2024/04/17 02:51:49;;;;;;;0.00;0.00;;;5.00;99.90;;;;;;5532992;25;20005;-65
2024/04/17 02:54:15;;;;;;;0.00;0.00;;;;;;;;;;5534133;25;20015;-65
2024/04/17 02:56:41;;;;;;;0.10;0.10;;;5.10;99.90;;;;;;5537272;25;20005;-67
2024/04/17 02:59:07;;;;;;;0.15;0.15;;;5.10;99.90;;;;;;5490288;25;19992;-65
2024/04/17 03:01:32;;;;;;;0.00;0.00;;;5.00;99.90;;;;;;5539531;25;19986;-65
2024/04/17 03:03:58;;;;;;;0.00;0.00;;;5.10;99.90;;;;;;5540386;25;19981;-65
2024/04/17 03:06:23;;;;;;;0.00;0.00;;;5.20;99.90;;;;;;5536051;25;19990;-65
2024/04/17 03:08:49;;;;;;;0.10;0.10;;;5.20;99.90;;;;;;5544404;25;20045;-65
2024/04/17 03:11:15;;;;;;;0.00;0.00;;;5.20;99.90;;;;;;5543175;25;20000;-65
2024/04/17 03:13:40;;;;;;;0.20;0.20;;;5.20;99.90;;;;;;5537023;25;20265;-65
2024/04/17 03:16:06;;;;;;;0.00;0.00;;;5.20;99.90;;;;;;5536125;25;19994;-65
2024/04/17 03:18:32;;;;;;;1.05;0.20;;;5.10;99.90;;;;;;5535810;25;19994;-65
2024/04/17 03:21:01;;;;;;;0.00;0.00;;;5.10;99.90;;;;;;5536184;25;19985;-65
2024/04/17 03:23:27;;;;;;;;;;;5.00;99.90;;;;;;5504653;25;19989;-65
2024/04/17 03:25:57;;;;;;;0.15;0.15;;;5.00;99.90;;;;;;5535752;25;19926;-64
2024/04/17 03:28:23;;;;;;;0.10;0.10;;;5.20;99.90;;;;;;5543323;25;19996;-64
2024/04/17 03:30:49;;;;;;;0.10;0.10;;;5.00;99.90;;;;;;5537669;25;19993;-64
2024/04/17 03:33:15;;;;;;;0.10;0.10;;;4.80;99.90;;;;;;5475406;26;19986;-64
2024/04/17 03:35:41;;;;;;;0.22;0.22;;;4.90;99.90;;;;;;5501734;25;19993;-65
2024/04/17 03:38:06;;;;;;;0.10;0.10;;;5.00;99.90;;;;;;5502865;26;19999;-65
2024/04/17 03:40:32;;;;;;;0.10;0.10;;;4.90;99.90;;;;;;5534746;25;19986;-66
2024/04/17 03:42:58;;;;;;;0.10;0.10;;;5.00;99.90;;;;;;5535150;25;20000;-66
2024/04/17 03:45:23;;;;;;;0.08;0.08;;;5.10;99.90;;;;;;5535530;25;20480;-64
2024/04/17 03:47:49;;;;;;;0.00;0.00;;;5.10;99.90;;;;;;5536987;25;19996;-64
2024/04/17 03:50:15;;;;;;;0.00;0.00;;;5.20;99.90;;;;;;5537836;25;20361;-65
2024/04/17 03:52:41;;;;;;;0.00;0.00;;;5.20;99.90;;;;;;5473935;25;19998;-65
2024/04/17 03:55:06;;;;;;;0.00;0.00;;;5.10;99.90;;;;;;5535735;25;20161;-65
2024/04/17 03:57:32;;;;;;;1.00;0.52;;;5.10;99.90;;;;;;5535430;25;19997;-67
2024/04/17 03:59:58;;;;;;;0.55;0.45;;;5.30;99.90;;;;;;5535723;25;19993;-66
2024/04/17 04:02:24;;;;;;;0.10;0.10;;;5.20;99.90;;;;;;5516160;25;19996;-66
2024/04/17 04:04:50;;;;;;;0.10;0.10;;;5.30;99.90;;;;;;5540504;25;19993;-65
2024/04/17 04:07:16;;;;;;;0.00;0.00;;;;;;;;;;5561955;25;20241;-66
2024/04/17 04:09:42;;;;;;;0.73;0.43;;;5.00;99.90;;;;;;5536188;25;20025;-65
2024/04/17 04:12:07;;;;;;;0.43;0.43;;;5.40;99.90;;;;;;5535428;25;19989;-65
2024/04/17 04:14:33;;;;;;;0.20;0.20;;;5.50;99.90;;;;;;5542671;25;20045;-66
2024/04/17 04:16:58;;;;;;;0.00;0.00;;;5.40;99.90;;;;;;5547733;25;20193;-67
2024/04/17 04:19:24;;;;;;;0.00;0.00;;;5.40;99.90;;;;;;5524784;25;20395;-67
2024/04/17 04:21:51;;;;;;;0.00;0.00;;;5.50;99.90;;;;;;5537757;25;20000;-67
2024/04/17 04:24:18;;;;;;;0.28;0.20;;;5.50;99.90;;;;;;5536592;25;19990;-67
2024/04/17 04:26:44;;;;;;;1.02;0.20;;;5.50;99.90;;;;;;5534947;25;20000;-67
2024/04/17 04:29:09;;;;;;;0.10;0.10;;;5.60;99.90;;;;;;5535558;25;19993;-67
2024/04/17 04:31:35;;;;;;;1.35;0.57;;;5.60;99.90;;;;;;5535029;25;19996;-66
2024/04/17 04:34:00;;;;;;;0.00;0.00;;;5.70;99.90;;;;;;5535742;25;19992;-67
2024/04/17 04:36:26;;;;;;;0.00;0.00;;;5.80;99.90;;;;;;5544507;25;20205;-65
2024/04/17 04:38:52;;;;;;;0.17;0.17;;;5.70;99.90;;;;;;5536511;25;19993;-63
2024/04/17 04:41:18;;;;;;;0.30;0.30;;;5.50;99.90;;;;;;5535292;25;19989;-63
2024/04/17 04:43:43;;;;;;;0.00;0.00;;;5.60;99.90;;;;;;5534806;25;19992;-64
2024/04/17 04:46:09;;;;;;;0.00;0.00;;;5.70;99.90;;;;;;5535093;25;19990;-63
2024/04/17 04:48:35;;;;;;;0.10;0.10;;;5.50;99.90;;;;;;5546846;25;19989;-63
2024/04/17 04:51:01;;;;;;;0.43;0.32;;;5.70;99.90;;;;;;5498267;25;20000;-66
2024/04/17 04:53:27;;;;;;;0.05;0.05;;;5.80;99.90;;;;;;5539661;25;19989;-65
2024/04/17 04:55:59;;;;;;;0.00;0.00;;;5.80;99.90;;;;;;5488507;25;20002;-64
2024/04/17 04:58:25;;;;;;;0.00;0.00;;;6.00;99.90;;;;;;5557448;25;19993;-64
2024/04/17 05:00:52;;;;;;;0.15;0.10;;;5.90;99.90;;;;;;5480199;26;20005;-63
2024/04/17 05:03:18;;;;;;;0.28;0.28;;;6.00;99.90;;;;;;5534123;25;20004;-64
2024/04/17 05:05:44;;;;;;;0.00;0.00;;;6.00;99.90;;;;;;5538275;25;19993;-64
2024/04/17 05:08:10;;;;;;;0.20;0.20;;;6.00;99.90;;;;;;5534559;25;20241;-64
2024/04/17 05:10:36;;;;;;;0.35;0.32;;;6.00;99.90;;;;;;5535142;25;20004;-64
2024/04/17 05:13:01;;;;;;;0.20;0.20;;;6.00;99.90;;;;;;5534348;25;19989;-64
2024/04/17 05:15:27;;;;;;;0.10;0.10;;;5.90;99.90;;;;;;5536955;25;19988;-64
2024/04/17 05:17:53;;;;;;;0.08;0.08;;;6.10;99.90;;;;;;5536464;25;19996;-64
2024/04/17 05:20:19;;;;;;;0.10;0.10;;;6.10;99.90;;;;;;5551712;25;20013;-64
2024/04/17 05:22:45;;;;;;;0.15;0.15;;;6.20;99.90;;;;;;5534592;25;20186;-64
2024/04/17 05:25:11;;;;;;;0.28;0.28;;;6.20;99.90;;;;;;5534495;25;20001;-65
2024/04/17 05:27:37;;;;;;;0.05;0.05;;;6.20;99.90;;;;;;5535477;25;19989;-65
2024/04/17 05:30:05;;;;;;;0.00;0.00;;;6.10;99.90;;;;;;5534219;25;19993;-64
2024/04/17 05:32:30;;;;;;;0.10;0.10;;;6.10;99.90;;;;;;5531149;25;19989;-64
2024/04/17 05:34:56;;;;;;;0.00;0.00;;;6.00;99.90;;;;;;5534272;25;20102;-64
2024/04/17 05:37:22;;;;;;;0.15;0.10;;;6.10;99.90;;;;;;5471842;25;19995;-64
2024/04/17 05:39:47;;;;;;;0.00;0.00;;;6.10;99.90;;;;;;5489855;26;19994;-64
2024/04/17 05:42:13;;;;;;;0.52;0.22;;;6.10;99.90;;;;;;5525477;25;20195;-64
2024/04/17 05:44:39;;;;;;;0.00;0.00;;;6.40;99.90;;;;;;5534685;25;19993;-64
2024/04/17 05:47:05;;;;;;;0.00;0.00;;;6.20;99.90;;;;;;5534027;25;19989;-64
2024/04/17 05:49:30;;;;;;;0.05;0.03;;;6.20;99.90;;;;;;5533441;25;20093;-64
2024/04/17 05:51:57;;;;;;;0.00;0.00;;;6.40;99.90;;;;;;5533603;25;19985;-65
2024/04/17 05:54:23;;;;;;;0.00;0.00;;;6.50;99.90;;;;;;5531807;25;20007;-63
2024/04/17 05:56:50;;;;;;;0.57;0.22;;;6.50;99.90;;;;;;5533704;25;19997;-65
2024/04/17 05:59:16;;;;;;;0.10;0.10;;;6.50;99.90;;;;;;5533487;25;20017;-65
2024/04/17 06:01:41;;;;;;;0.10;0.10;;;6.60;99.90;;;;;;5535862;25;20005;-65
2024/04/17 06:04:07;;;;;;;0.00;0.00;;;;;;;;;;5543773;25;20179;-66
2024/04/17 06:06:33;;;;;;;0.00;0.00;;;;;;;;;;5533512;25;19989;-64
2024/04/17 06:09:01;;;;;;;0.25;0.25;;;6.70;99.90;;;;;;5501113;26;19999;-65
2024/04/17 06:11:27;;;;;;;0.20;0.20;;;6.80;99.90;;;;;;5531987;25;20010;-64
2024/04/17 06:13:52;;;;;;;0.20;0.10;;;6.80;99.90;;;;;;5532252;25;19990;-65
2024/04/17 06:16:18;;;;;;;0.00;0.00;;;6.80;99.90;;;;;;5531518;25;20169;-65
2024/04/17 06:18:44;;;;;;;0.65;0.47;;;6.70;99.90;;;;;;5532714;25;20005;-65
2024/04/17 06:21:10;;;;;;;0.10;0.10;;;;;;;;;;5546611;25;20204;-65
2024/04/17 06:23:37;;;;;;;0.00;0.00;;;;;;;;;;5541509;25;19986;-65
2024/04/17 06:26:03;;;;;;;0.00;0.00;;;;;;;;;;5550171;25;19984;-65
2024/04/17 06:28:29;;;;;;;0.10;0.10;;;;;;;;;;5534151;25;19992;-65
2024/04/17 06:30:56;;;;;;;0.03;0.03;;;;;;;;;;5531037;25;20000;-65
2024/04/17 06:33:24;;;;;;;0.00;0.00;;;;;;;;;;5539390;25;20042;-65
2024/04/17 06:35:53;;;;;;;0.00;0.00;;;;;;;;;;5519442;25;20001;-64
2024/04/17 06:38:21;;;;;;;0.00;0.00;;;;;;;;;;5494472;25;19986;-64
2024/04/17 06:40:48;;;;;;;1.27;0.45;;;;;;;;;;5501280;26;19998;-65
2024/04/17 06:43:16;;;;;;;0.10;0.10;;;;;;;;;;5495227;26;19986;-65
2024/04/17 06:45:45;;;;;;;0.10;0.10;;;;;;;;;;5531430;25;20335;-65
2024/04/17 06:48:13;;;;;;;0.08;0.08;;;;;;;;;;5532896;25;20197;-65
2024/04/17 06:50:40;;;;;;;0.05;0.05;;;;;;;;;;5532666;25;20000;-65
2024/04/17 06:53:07;;;;;;;0.25;0.05;;;;;;;;;;5534073;25;19996;-65
2024/04/17 06:55:33;;;;;;;0.00;0.00;;;7.10;99.90;;;;;;5532591;25;19988;-64
2024/04/17 06:57:59;;;;;;;0.00;0.00;;;6.80;99.90;;;;;;5532566;25;19989;-64
2024/04/17 07:00:32;;;;;;;1.55;0.20;;;6.90;99.90;;;;;;5532603;25;19993;-64
2024/04/17 07:02:58;;;;;;;0.05;0.05;;;7.00;99.90;;;;;;5513676;26;20191;-65
2024/04/17 07:05:24;;;;;;;0.00;0.00;;;;;;;;;;5532506;25;19986;-64
2024/04/17 07:07:50;;;;;;;0.10;0.10;;;;;;;;;;5500845;26;19981;-64
2024/04/17 07:10:16;;;;;;;0.20;0.20;;;;;;;;;;5533744;25;19986;-65
2024/04/17 07:12:42;;;;;;;0.15;0.15;;;;;;;;;;5532460;25;19986;-65
2024/04/17 07:15:09;;;;;;;0.10;0.10;;;7.50;99.90;;;;;;5532399;25;19989;-65
2024/04/17 07:17:34;;;;;;;0.60;0.25;;;7.50;99.90;;;;;;5532388;25;20002;-65
2024/04/17 07:20:00;;;;;;;0.80;0.10;;;7.50;99.90;;;;;;5532536;25;19989;-66
2024/04/17 07:22:26;;;;;;;0.20;0.20;;;7.50;99.90;;;;;;5476612;25;19989;-65
2024/04/17 07:24:52;;;;;;;1.45;0.52;;;7.60;99.90;;;;;;5532598;25;19992;-65
2024/04/17 07:27:17;;;;;;;2.60;0.30;;;7.80;99.90;;;;;;5543259;25;19996;-65
2024/04/17 07:29:43;;;;;;;0.00;0.00;;;6.40;99.90;;;;;;5547383;25;19989;-65
2024/04/17 07:32:09;;;;;;;0.45;0.45;;;7.40;99.90;;;;;;5542467;25;20253;-65
2024/04/17 07:34:34;;;;;;;0.45;0.45;;;7.70;99.90;;;;;;5535292;25;20050;-65
2024/04/17 07:37:00;;;;;;;0.00;0.00;;;7.60;99.90;;;;;;5532128;25;20202;-65
2024/04/17 07:39:26;;;;;;;0.10;0.10;;;7.60;99.90;;;;;;5531837;25;20081;-65
2024/04/17 07:41:52;;;;;;;0.10;0.10;;;;;;;;;;5534691;25;19988;-66
2024/04/17 07:44:18;;;;;;;0.00;0.00;;;;;;;;;;5536985;25;19993;-65
2024/04/17 07:46:44;;;;;;;0.17;0.17;;;7.60;99.90;;;;;;5535554;25;20013;-65
2024/04/17 07:49:10;;;;;;;0.30;0.28;;;7.90;99.90;;;;;;5504077;26;19986;-65
2024/04/17 07:51:37;;;;;;;0.30;0.30;;;;;;;;;;5535397;25;20188;-65
2024/04/17 07:54:03;;;;;;;0.05;0.05;;;8.40;99.90;;;;;;5448912;26;19982;-66
2024/04/17 07:56:29;;;;;;;0.10;0.10;;;;;;;;;;5530597;25;19997;-65
2024/04/17 07:58:55;;;;;;;0.20;0.13;;;;;;;;;;5511204;25;19981;-65
2024/04/17 08:01:21;;;;;;;2.05;0.70;;;;;;;;;;5543291;25;19989;-66
2024/04/17 08:03:49;;;;;;;10.73;0.55;;;;;;;;;;5545513;25;20062;-65
2024/04/17 08:06:20;;;;;;;1.30;0.22;;;7.60;99.90;;;;;;5503687;26;20001;-65
2024/04/17 08:08:46;;;;;;;0.00;0.00;;;8.50;99.90;;;;;;5535308;25;20057;-65
2024/04/17 08:11:12;;;;;;;0.10;0.10;;;8.60;99.90;;;;;;5550932;25;19985;-65
2024/04/17 08:13:39;;;;;;;0.38;0.15;;;8.70;99.90;;;;;;5535077;25;19985;-65
2024/04/17 08:16:05;;;;;;;0.00;0.00;;;8.70;99.90;;;;;;5535356;25;20000;-65
2024/04/17 08:18:30;;;;;;;1.08;0.80;;;8.80;99.90;;;;;;5537309;25;20004;-65
2024/04/17 08:20:57;;;;;;;0.03;0.03;;;8.30;99.90;;;;;;5548330;25;19989;-65
2024/04/17 08:23:23;;;;;;;0.40;0.40;;;;;;;;;;5535010;25;20033;-66
2024/04/17 08:25:48;;;;;;;0.43;0.43;;;9.50;99.90;;;;;;5519917;25;20199;-66
2024/04/17 08:28:15;;;;;;;0.25;0.25;;;9.30;99.90;;;;;;5536576;25;19988;-65
2024/04/17 08:30:40;;;;;;;0.43;0.13;;;9.30;99.90;;;;;;5539079;25;19996;-65
2024/04/17 08:33:06;;;;;;;0.10;0.10;;;10.00;99.90;;;;;;5535043;25;19993;-65
2024/04/17 08:35:38;;;;;;;0.10;0.10;;;9.50;99.90;;;;;;5537379;25;20026;-66
2024/04/17 08:38:04;;;;;;;0.10;0.10;;;;;;;;;;5504736;26;20000;-66
2024/04/17 08:40:30;;;;;;;0.20;0.20;;;9.80;99.90;;;;;;5549604;25;19994;-66
2024/04/17 08:43:02;;;;;;;0.73;0.38;;;10.60;99.90;;;;;;5554563;25;20050;-66
2024/04/17 08:45:35;;;;;;;0.05;0.05;;;10.60;99.90;;;;;;5517091;25;19997;-66
2024/04/17 08:48:02;;;;;;;0.35;0.25;;;10.60;99.90;;;;;;5506645;26;20202;-65
2024/04/17 08:50:30;;;;;;;0.10;0.10;;;10.80;99.90;;;;;;5536536;25;19993;-66
2024/04/17 08:53:03;;;;;;;0.13;0.13;;;10.80;99.90;;;;;;5537676;25;20053;-66
2024/04/17 08:55:29;;;;;;;0.10;0.10;;;11.00;99.90;;;;;;5534833;25;19989;-68
2024/04/17 08:57:56;;;;;;;0.10;0.10;;;11.10;99.90;;;;;;5539497;25;19999;-66
2024/04/17 09:00:26;;;;;;;0.20;0.20;;;11.50;99.90;;;;;;5534770;25;20046;-66
2024/04/17 09:02:56;;;;;;;0.10;0.10;;;11.40;99.90;;;;;;5533774;25;20281;-67
2024/04/17 09:05:29;;;;;;;0.10;0.10;;;11.40;99.90;;;;;;5534790;25;19989;-66
2024/04/17 09:07:58;;;;;;;0.30;0.20;;;11.30;99.90;;;;;;5521341;25;20001;-66
2024/04/17 09:10:24;;;;;;;0.38;0.38;;;11.20;99.90;;;;;;5535563;25;20005;-66
2024/04/17 09:12:52;;;;;;;0.20;0.20;;;11.20;99.90;;;;;;5534450;25;19997;-66
2024/04/17 09:15:19;;;;;;;0.08;0.08;;;11.00;99.90;;;;;;5534670;25;20389;-66
2024/04/17 09:17:46;;;;;;;0.30;0.30;;;10.80;99.90;;;;;;5534319;25;20068;-66
2024/04/17 09:20:13;;;;;;;0.10;0.10;;;10.70;99.90;;;;;;5534475;25;19993;-65
2024/04/17 09:22:39;;;;;;;0.20;0.20;;;10.80;99.90;;;;;;5534128;25;20198;-66
2024/04/17 09:25:24;;;;;;;0.38;0.38;;;10.90;99.90;;;;;;5534280;25;20000;-66
2024/04/17 09:27:50;;;;;;;0.10;0.10;;;10.90;99.90;;;;;;5535592;25;20057;-66
2024/04/17 09:30:16;;;;;;;1.20;0.30;;;10.90;99.90;;;;;;5534867;25;20104;-66
2024/04/17 09:32:42;;;;;;;0.10;0.10;;;10.50;99.90;;;;;;5538328;25;20350;-65
2024/04/17 09:35:10;;;;;;;0.20;0.20;;;10.40;99.90;;;;;;5534281;25;19993;-65
2024/04/17 09:37:39;;;;;;;0.15;0.15;;;10.50;99.90;;;;;;5533648;25;19997;-65
2024/04/17 09:40:09;;;;;;;0.00;0.00;;;10.40;99.90;;;;;;5534285;25;19989;-66
2024/04/17 09:42:41;;;;;;;0.13;0.13;;;10.60;99.90;;;;;;5550360;25;20040;-66
2024/04/17 09:45:21;;;;;;;0.28;0.22;;;10.60;99.90;;;;;;5534222;25;20009;-66
2024/04/17 09:47:49;;;;;;;0.00;0.00;;;10.60;99.90;;;;;;5533936;25;19998;-65
2024/04/17 09:50:21;;;;;;;0.10;0.10;;;11.00;99.90;;;;;;5534051;25;19986;-65
2024/04/17 09:52:52;;;;;;;0.17;0.17;;;10.80;99.90;;;;;;5533955;25;20005;-65
2024/04/17 09:55:22;;;;;;;0.70;0.20;;;10.50;99.90;;;;;;5533963;25;20060;-65
2024/04/17 09:57:50;;;;;;;0.40;0.40;;;10.50;99.90;;;;;;5534006;25;20000;-65
2024/04/17 10:00:16;;;;;;;0.80;0.50;;;10.70;99.90;;;;;;5534896;25;19990;-66
2024/04/17 10:02:44;;;;;;;0.45;0.20;;;10.90;99.90;;;;;;5497610;25;19991;-66
2024/04/17 10:05:10;;;;;;;1.77;0.63;;;11.00;99.20;;;;;;5533045;25;19997;-65
2024/04/17 10:07:38;;;;;;;0.90;0.50;;;11.00;99.90;;;;;;5533692;25;20106;-66
2024/04/17 10:10:06;;;;;;;0.10;0.10;;;11.20;99.90;;;;;;5533690;25;19997;-66
2024/04/17 10:12:33;;;;;;;0.10;0.10;;;11.50;99.90;;;;;;5501775;25;20024;-65
2024/04/17 10:14:59;;;;;;;0.00;0.00;;;11.10;99.90;;;;;;5533495;25;20003;-65
2024/04/17 10:17:24;;;;;;;0.00;0.00;;;11.50;99.90;;;;;;5534198;25;20054;-66
2024/04/17 10:19:51;;;;;;;0.00;0.00;;;11.50;97.50;;;;;;5533012;25;20001;-66
2024/04/17 10:22:17;;;;;;;0.20;0.20;;;11.70;96.80;;;;;;5537500;25;19989;-65
2024/04/17 10:24:43;;;;;;;0.20;0.17;;;11.90;96.00;;;;;;5532941;25;20083;-66
2024/04/17 10:27:19;;;;;;;0.20;0.20;;;12.10;95.00;;;;;;5532935;25;19993;-66
2024/04/17 10:29:45;;;;;;;0.17;0.17;;;12.00;94.60;;;;;;5533102;25;20512;-66
2024/04/17 10:32:14;;;;;;;0.08;0.08;;;11.80;94.90;;;;;;5501646;26;19994;-66
2024/04/17 10:34:42;;;;;;;;;;;11.70;95.40;;;;;;5534767;25;19986;-66
2024/04/17 10:37:09;;;;;;;0.10;0.10;;;11.70;94.60;;;;;;5533214;25;20140;-66
2024/04/17 10:39:38;;;;;;;0.10;0.10;;;11.80;94.60;;;;;;5532825;25;19993;-66
2024/04/17 10:42:05;;;;;;;0.10;0.10;;;11.60;94.80;;;;;;5533075;25;20033;-66
2024/04/17 10:44:32;;;;;;;0.25;0.20;;;11.50;95.30;;;;;;5532943;25;19993;-66
2024/04/17 10:47:06;;;;;;;0.40;0.40;;;11.50;95.50;;;;;;5533003;25;20017;-66
2024/04/17 10:49:41;;;;;;;0.10;0.10;;;11.50;95.80;;;;;;5500687;25;19993;-66
2024/04/17 10:52:07;;;;;;;0.45;0.30;;;11.40;95.50;;;;;;5533973;25;20210;-66
2024/04/17 10:54:36;;;;;;;0.43;0.15;;;11.60;99.90;;;;;;5536507;25;19985;-66
2024/04/17 10:57:03;;;;;;;0.00;0.00;;;11.30;99.90;;;;;;5532580;25;19997;-66
2024/04/17 10:59:29;;;;;;;0.30;0.30;;;11.20;99.90;;;;;;5532305;25;20111;-66
2024/04/17 11:01:55;;;;;;;0.10;0.10;;;11.40;99.90;;;;;;5536605;25;19992;-66
2024/04/17 11:04:23;;;;;;;0.30;0.30;;;11.40;99.90;;;;;;5547068;25;19993;-66
2024/04/17 11:06:50;;;;;;;0.30;0.20;;;11.40;95.30;;;;;;5532590;25;20308;-66
2024/04/17 11:09:16;;;;;;;0.20;0.10;;;11.60;99.90;;;;;;5499341;26;20014;-66
2024/04/17 11:11:50;;;;;;;0.00;0.00;;;11.40;95.40;;;;;;5530697;25;20059;-66
2024/04/17 11:14:15;;;;;;;0.13;0.13;;;12.00;99.90;;;;;;5532171;25;20004;-66
2024/04/17 11:16:45;;;;;;;0.30;0.20;;;12.00;92.50;;;;;;5538189;25;19989;-66
2024/04/17 11:19:11;;;;;;;0.20;0.20;;;12.50;98.90;;;;;;5551431;25;19989;-66
2024/04/17 11:21:37;;;;;;;0.77;0.10;;;12.70;98.00;;;;;;5535776;25;20218;-66
2024/04/17 11:24:03;;;;;;;0.40;0.40;;;;;;;;;;5536105;25;19993;-66
2024/04/17 11:26:32;;;;;;;0.10;0.10;;;12.70;97.50;;;;;;5536724;25;20023;-66
2024/04/17 11:28:58;;;;;;;0.10;0.10;;;12.90;90.60;;;;;;5540766;25;20090;-66
2024/04/17 11:31:24;;;;;;;0.05;0.05;;;12.60;97.90;;;;;;5504044;25;19997;-66
2024/04/17 11:33:50;;;;;;;0.55;0.20;;;12.80;90.10;;;;;;5482499;26;19986;-67
2024/04/17 11:36:16;;;;;;;0.30;0.28;;;12.70;91.00;;;;;;5525094;25;19985;-66
2024/04/17 11:38:45;;;;;;;0.20;0.20;;;12.20;91.00;;;;;;5504189;25;19994;-66
2024/04/17 11:41:13;;;;;;;0.10;0.10;;;12.10;91.70;;;;;;5553683;25;20029;-66
2024/04/17 11:43:43;;;;;;;0.10;0.10;;;11.90;98.60;;;;;;5539016;25;20085;-65
2024/04/17 11:46:14;;;;;;;0.05;0.05;;;12.20;99.20;;;;;;5504345;26;20014;-66
2024/04/17 11:48:40;;;;;;;0.10;0.10;;;;;;;;;;5535798;25;19990;-65
2024/04/17 11:51:07;;;;;;;1.02;0.28;;;11.50;99.90;;;;;;5535763;25;20561;-66
2024/04/17 11:53:33;;;;;;;0.00;0.00;;;11.60;92.90;;;;;;5535747;25;19993;-66
2024/04/17 11:55:58;;;;;;;0.22;0.22;;;11.50;93.10;;;;;;5535802;25;19989;-66
2024/04/17 11:58:24;;;;;;;0.10;0.10;;;11.40;93.20;;;;;;5473926;25;20262;-66
2024/04/17 12:00:50;;;;;;;0.10;0.10;;;;;;;;;;5536959;25;20072;-66
2024/04/17 12:03:16;;;;;;;0.17;0.17;;;11.40;93.30;;;;;;5546356;25;19995;-66
2024/04/17 12:05:41;;;;;;;0.10;0.10;;;11.30;99.90;;;;;;5537255;25;20184;-65
2024/04/17 12:08:08;;;;;;;0.00;0.00;;;11.40;93.60;;;;;;5535571;25;19986;-66
2024/04/17 12:10:34;;;;;;;0.20;0.20;;;11.10;97.50;;;;;;5535370;25;20030;-65
2024/04/17 12:12:59;;;;;;;0.10;0.00;;;11.20;93.60;;;;;;5535659;25;19990;-66
2024/04/17 12:15:25;;;;;;;0.03;0.03;;;11.30;93.80;;;;;;5535440;25;19989;-65
2024/04/17 12:17:51;;;;;;;0.10;0.10;;;11.40;99.90;;;;;;5536576;25;20000;-66
2024/04/17 12:20:16;;;;;;;0.22;0.22;;;11.60;99.90;;;;;;5535564;25;20045;-66
2024/04/17 12:22:43;;;;;;;0.00;0.00;;;;;;;;;;5535491;25;20004;-66
2024/04/17 12:27:53;;;;;;;0.00;0.00;;;12.00;92.20;;;;;;5492929;25;20000;-66
2024/04/17 12:30:19;;;;;;;0.00;0.00;;;;;;;;;;5535183;25;20005;-66
2024/04/17 12:32:45;;;;;;;0.00;0.00;;;11.90;90.70;;;;;;5504259;25;20210;-65
2024/04/17 12:35:12;;;;;;;0.10;0.10;;;11.60;99.70;;;;;;5535024;25;19990;-65
2024/04/17 12:37:39;;;;;;;0.00;0.00;;;11.60;91.60;;;;;;5534911;25;20001;-66
2024/04/17 12:40:05;;;;;;;0.10;0.10;;;11.20;99.90;;;;;;5535104;25;19996;-66
2024/04/17 12:42:31;;;;;;;0.15;0.15;;;11.30;99.90;;;;;;5534865;25;20226;-65
2024/04/17 12:44:57;;;;;;;0.03;0.03;;;11.20;99.90;;;;;;5534915;25;20026;-66
2024/04/17 12:47:23;;;;;;;0.90;0.25;;;11.60;99.90;;;;;;5534909;25;19993;-65
2024/04/17 12:49:48;;;;;;;0.10;0.10;;;11.40;99.90;;;;;;5535785;25;20002;-65
2024/04/17 12:52:14;;;;;;;0.15;0.15;;;;;;;;;;5534729;25;20001;-66
2024/04/17 12:54:40;;;;;;;0.10;0.10;;;;;;;;;;5538309;25;20095;-66
2024/04/17 12:57:07;;;;;;;0.10;0.10;;;11.60;91.50;;;;;;5534599;25;20014;-66
2024/04/17 12:59:33;;;;;;;0.20;0.20;;;11.40;99.70;;;;;;5534631;25;20001;-65
2024/04/17 13:02:00;;;;;;;0.05;0.05;;;11.40;99.00;;;;;;5479072;26;19997;-66
2024/04/17 13:04:25;;;;;;;0.17;0.17;;;11.40;99.10;;;;;;5541268;25;20006;-65
2024/04/17 13:06:54;;;;;;;0.05;0.05;;;11.50;98.70;;;;;;5536703;25;19984;-67